La rose des vents
Donnes mto: Semaine 19/02/07 - 25/02/07 (S 8)
Date Horaire Temp. E. Hum. E. P.atmo. Pluie Vent 1mn Direction Ensoleilleme Ev.Tr. Solaire P. de rose Temp au vent Rafales
19/02/2007 00:00 7,4 C 77 % 1015,3 hPa 0,0 l/m 4,5 km/h (1 Bft) O-NO 0,00 h 0,025 mm 0 W/m 3,7 C 6,9 C 7,1 km/h (2 Bft)
19/02/2007 01:00 6,9 C 79 % 1014,9 hPa 0,0 l/m 5,3 km/h (1 Bft) O-NO 0,00 h 0,025 mm 0 W/m 3,5 C 6,1 C 7,2 km/h (2 Bft)
19/02/2007 02:00 7,2 C 78 % 1014,2 hPa 0,0 l/m 6,7 km/h (2 Bft) O-NO 0,00 h 0,025 mm 0 W/m 3,6 C 6,1 C 9,0 km/h (2 Bft)
19/02/2007 03:00 7,1 C 76 % 1013,4 hPa 0,0 l/m 6,7 km/h (2 Bft) O-NO 0,00 h 0,025 mm 0 W/m 3,2 C 5,9 C 8,3 km/h (2 Bft)
19/02/2007 04:00 6,4 C 78 % 1012,8 hPa 0,0 l/m 6,6 km/h (2 Bft) O-NO 0,00 h 0,025 mm 0 W/m 2,9 C 5,2 C 8,2 km/h (2 Bft)
19/02/2007 05:00 6,1 C 80 % 1012,7 hPa 0,0 l/m 7,4 km/h (2 Bft) O-NO 0,00 h 0,025 mm 0 W/m 2,9 C 4,6 C 9,5 km/h (2 Bft)
19/02/2007 06:00 6,5 C 79 % 1012,7 hPa 0,0 l/m 6,9 km/h (2 Bft) O-NO 0,00 h 0,025 mm 0 W/m 3,1 C 5,3 C 8,7 km/h (2 Bft)
19/02/2007 07:00 6,9 C 77 % 1012,6 hPa 0,0 l/m 5,1 km/h (1 Bft) O-NO 0,00 h 0,025 mm 12 W/m 3,2 C 6,3 C 6,6 km/h (2 Bft)
19/02/2007 08:00 7,4 C 77 % 1012,8 hPa 0,0 l/m 5,3 km/h (1 Bft) O-NO 0,00 h 0,025 mm 58 W/m 3,6 C 6,7 C 6,9 km/h (2 Bft)
19/02/2007 09:00 8,7 C 76 % 1012,7 hPa 0,0 l/m 0,8 km/h (0 Bft) O-NO 0,00 h 0,051 mm 143 W/m 4,8 C 8,7 C 1,5 km/h (1 Bft)
19/02/2007 10:00 9,9 C 75 % 1012,7 hPa 0,0 l/m 1,1 km/h (1 Bft) N 0,43 h 0,076 mm 257 W/m 5,8 C 9,9 C 2,2 km/h (1 Bft)
19/02/2007 11:00 11,2 C 66 % 1012,6 hPa 0,0 l/m 2,8 km/h (1 Bft) SO 0,57 h 0,127 mm 442 W/m 5,1 C 11,2 C 5,1 km/h (1 Bft)
19/02/2007 12:00 11,1 C 67 % 1012,1 hPa 0,0 l/m 4,6 km/h (1 Bft) S-SE 0,33 h 0,229 mm 375 W/m 5,3 C 11,1 C 7,5 km/h (2 Bft)
19/02/2007 13:00 12,1 C 65 % 1011,2 hPa 0,0 l/m 6,2 km/h (2 Bft) S 1,00 h 0,203 mm 535 W/m 5,7 C 12,1 C 9,6 km/h (2 Bft)
19/02/2007 14:00 12,5 C 64 % 1010,6 hPa 0,0 l/m 6,3 km/h (2 Bft) S 1,00 h 0,279 mm 462 W/m 5,9 C 12,5 C 10,1 km/h (2 Bft)
19/02/2007 15:00 12,2 C 65 % 1010,3 hPa 0,0 l/m 4,8 km/h (1 Bft) S 1,00 h 0,254 mm 353 W/m 5,8 C 12,2 C 8,4 km/h (2 Bft)
19/02/2007 16:00 11,5 C 67 % 1010,2 hPa 0,0 l/m 4,6 km/h (1 Bft) S-SE 1,00 h 0,203 mm 197 W/m 5,6 C 11,5 C 7,4 km/h (2 Bft)
19/02/2007 17:00 10,3 C 72 % 1010,4 hPa 0,0 l/m 3,8 km/h (1 Bft) S-SE 0,28 h 0,127 mm 45 W/m 5,4 C 10,3 C 5,5 km/h (1 Bft)
19/02/2007 18:00 8,5 C 78 % 1010,9 hPa 0,0 l/m 0,7 km/h (0 Bft) S 0,00 h 0,025 mm 5 W/m 4,9 C 8,5 C 1,7 km/h (1 Bft)
19/02/2007 19:00 8,0 C 81 % 1011,2 hPa 0,0 l/m 1,8 km/h (1 Bft) SO 0,00 h 0,000 mm 0 W/m 4,9 C 8,0 C 2,6 km/h (1 Bft)
19/02/2007 20:00 7,4 C 81 % 1011,4 hPa 0,0 l/m 3,1 km/h (1 Bft) O-NO 0,00 h 0,025 mm 0 W/m 4,3 C 7,3 C 5,1 km/h (1 Bft)
19/02/2007 21:00 6,7 C 85 % 1011,6 hPa 0,0 l/m 3,2 km/h (1 Bft) NO 0,00 h 0,025 mm 0 W/m 4,4 C 6,6 C 4,7 km/h (1 Bft)
19/02/2007 22:00 6,8 C 86 % 1011,5 hPa 0,0 l/m 4,3 km/h (1 Bft) O-NO 0,00 h 0,025 mm 0 W/m 4,6 C 6,4 C 5,5 km/h (1 Bft)
19/02/2007 23:00 6,3 C 86 % 1011,2 hPa 0,0 l/m 3,8 km/h (1 Bft) O-NO 0,00 h 0,025 mm 0 W/m 4,2 C 6,0 C 5,9 km/h (2 Bft)
20/02/2007 00:00 6,4 C 87 % 1010,8 hPa 0,0 l/m 4,8 km/h (1 Bft) O-NO 0,00 h 0,025 mm 0 W/m 4,4 C 5,7 C 6,2 km/h (2 Bft)
20/02/2007 01:00 6,1 C 86 % 1010,4 hPa 0,0 l/m 7,1 km/h (2 Bft) O-NO 0,00 h 0,025 mm 0 W/m 3,9 C 4,7 C 8,9 km/h (2 Bft)
20/02/2007 02:00 6,1 C 85 % 1010,2 hPa 0,0 l/m 3,9 km/h (1 Bft) NO 0,00 h 0,025 mm 0 W/m 3,8 C 5,6 C 4,9 km/h (1 Bft)
20/02/2007 03:00 5,8 C 86 % 1010,1 hPa 0,0 l/m 0,3 km/h (0 Bft) NO 0,00 h 0,025 mm 0 W/m 3,6 C 5,8 C 0,8 km/h (0 Bft)
20/02/2007 04:00 5,9 C 86 % 1010,0 hPa 0,0 l/m 1,7 km/h (1 Bft) O-NO 0,00 h 0,000 mm 0 W/m 3,8 C 5,8 C 2,5 km/h (1 Bft)
20/02/2007 05:00 5,6 C 85 % 1009,8 hPa 0,0 l/m 4,5 km/h (1 Bft) O-NO 0,00 h 0,025 mm 0 W/m 3,2 C 4,9 C 6,0 km/h (2 Bft)
20/02/2007 06:00 5,1 C 81 % 1009,5 hPa 0,0 l/m 6,8 km/h (2 Bft) O-NO 0,00 h 0,025 mm 0 W/m 2,1 C 3,6 C 9,3 km/h (2 Bft)
20/02/2007 07:00 5,3 C 78 % 1009,6 hPa 0,0 l/m 4,1 km/h (1 Bft) NO 0,43 h 0,025 mm 26 W/m 1,8 C 4,7 C 6,1 km/h (2 Bft)
20/02/2007 08:00 7,5 C 75 % 1010,2 hPa 0,0 l/m 1,8 km/h (1 Bft) NO 1,00 h 0,025 mm 137 W/m 3,3 C 7,4 C 3,1 km/h (1 Bft)
20/02/2007 09:00 10,2 C 67 % 1010,5 hPa 0,0 l/m 0,7 km/h (0 Bft) E 1,00 h 0,076 mm 295 W/m 4,3 C 10,2 C 1,7 km/h (1 Bft)
20/02/2007 10:00 11,7 C 64 % 1010,7 hPa 0,0 l/m 2,8 km/h (1 Bft) E-SE 1,00 h 0,152 mm 431 W/m 5,1 C 11,7 C 5,0 km/h (1 Bft)
20/02/2007 11:00 12,9 C 56 % 1011,0 hPa 0,0 l/m 6,1 km/h (2 Bft) S 1,00 h 0,229 mm 517 W/m 4,3 C 12,9 C 9,7 km/h (2 Bft)
20/02/2007 12:00 13,6 C 53 % 1011,1 hPa 0,0 l/m 7,6 km/h (2 Bft) S 1,00 h 0,305 mm 556 W/m 4,2 C 13,6 C 12,1 km/h (2 Bft)
20/02/2007 13:00 14,0 C 50 % 1010,9 hPa 0,0 l/m 5,8 km/h (2 Bft) S 1,00 h 0,330 mm 542 W/m 3,7 C 14,0 C 9,8 km/h (2 Bft)
20/02/2007 14:00 14,2 C 50 % 1010,0 hPa 0,0 l/m 6,6 km/h (2 Bft) S-SE 1,00 h 0,305 mm 472 W/m 4,0 C 14,2 C 10,1 km/h (2 Bft)
20/02/2007 15:00 14,0 C 53 % 1009,8 hPa 0,0 l/m 7,7 km/h (2 Bft) S-SE 1,00 h 0,279 mm 349 W/m 4,5 C 14,0 C 12,0 km/h (2 Bft)
20/02/2007 16:00 13,2 C 57 % 1010,0 hPa 0,0 l/m 5,9 km/h (2 Bft) S-SE 1,00 h 0,229 mm 199 W/m 4,8 C 13,2 C 8,8 km/h (2 Bft)
20/02/2007 17:00 12,0 C 66 % 1010,5 hPa 0,0 l/m 3,7 km/h (1 Bft) S 0,47 h 0,127 mm 57 W/m 5,7 C 12,0 C 5,4 km/h (1 Bft)
20/02/2007 18:00 10,0 C 74 % 1011,1 hPa 0,0 l/m 5,2 km/h (1 Bft) O 0,00 h 0,051 mm 7 W/m 5,6 C 9,7 C 6,5 km/h (2 Bft)
20/02/2007 19:00 9,2 C 75 % 1011,2 hPa 0,0 l/m 7,7 km/h (2 Bft) O-NO 0,00 h 0,025 mm 0 W/m 5,0 C 8,1 C 9,7 km/h (2 Bft)
20/02/2007 20:00 8,3 C 76 % 1011,5 hPa 0,0 l/m 5,7 km/h (1 Bft) O-NO 0,00 h 0,025 mm 0 W/m 4,4 C 7,7 C 7,7 km/h (2 Bft)
20/02/2007 21:00 8,0 C 76 % 1011,9 hPa 0,0 l/m 3,4 km/h (1 Bft) NO 0,00 h 0,025 mm 0 W/m 4,0 C 7,9 C 5,8 km/h (2 Bft)
20/02/2007 22:00 8,0 C 73 % 1012,3 hPa 0,0 l/m 3,2 km/h (1 Bft) NO 0,00 h 0,025 mm 0 W/m 3,5 C 7,9 C 5,3 km/h (1 Bft)
20/02/2007 23:00 8,2 C 69 % 1012,3 hPa 0,0 l/m 4,7 km/h (1 Bft) NO 0,00 h 0,025 mm 0 W/m 2,9 C 7,8 C 7,5 km/h (2 Bft)
21/02/2007 00:00 9,0 C 62 % 1012,5 hPa 0,0 l/m 5,0 km/h (1 Bft) O-NO 0,00 h 0,025 mm 0 W/m 2,2 C 8,6 C 6,9 km/h (2 Bft)
21/02/2007 01:00 9,2 C 58 % 1012,4 hPa 0,0 l/m 4,7 km/h (1 Bft) NO 0,00 h 0,051 mm 0 W/m 1,3 C 8,8 C 7,7 km/h (2 Bft)
21/02/2007 02:00 10,1 C 53 % 1012,5 hPa 0,0 l/m 4,2 km/h (1 Bft) O-NO 0,00 h 0,051 mm 0 W/m 1,0 C 10,0 C 7,1 km/h (2 Bft)
21/02/2007 03:00 10,3 C 54 % 1012,2 hPa 0,0 l/m 3,9 km/h (1 Bft) NO 0,00 h 0,051 mm 0 W/m 1,5 C 10,3 C 6,1 km/h (2 Bft)
21/02/2007 04:00 10,7 C 54 % 1012,1 hPa 0,0 l/m 0,8 km/h (0 Bft) N-NO 0,00 h 0,051 mm 0 W/m 1,9 C 10,7 C 1,3 km/h (1 Bft)
21/02/2007 05:00 10,8 C 53 % 1012,4 hPa 0,0 l/m 2,1 km/h (1 Bft) NO 0,00 h 0,025 mm 0 W/m 1,6 C 10,8 C 3,1 km/h (1 Bft)
21/02/2007 06:00 10,6 C 55 % 1012,6 hPa 0,0 l/m 2,3 km/h (1 Bft) O 0,00 h 0,051 mm 0 W/m 2,0 C 10,6 C 4,0 km/h (1 Bft)
21/02/2007 07:00 10,2 C 58 % 1013,2 hPa 0,0 l/m 0,3 km/h (0 Bft) E-NE 0,00 h 0,051 mm 8 W/m 2,3 C 10,2 C 0,8 km/h (0 Bft)
21/02/2007 08:00 10,7 C 57 % 1013,7 hPa 0,0 l/m 0,3 km/h (0 Bft) E-NE 0,00 h 0,000 mm 31 W/m 2,5 C 10,7 C 0,8 km/h (0 Bft)
21/02/2007 09:00 11,3 C 61 % 1014,2 hPa 0,0 l/m 1,3 km/h (1 Bft) SE 0,00 h 0,025 mm 96 W/m 4,1 C 11,3 C 2,7 km/h (1 Bft)
21/02/2007 10:00 11,1 C 67 % 1014,7 hPa 0,0 l/m 3,6 km/h (1 Bft) N 0,00 h 0,051 mm 109 W/m 5,1 C 11,1 C 6,4 km/h (2 Bft)
21/02/2007 11:00 12,1 C 66 % 1014,6 hPa 0,0 l/m 1,3 km/h (1 Bft) N-NO 0,00 h 0,076 mm 140 W/m 5,9 C 12,1 C 3,0 km/h (1 Bft)
21/02/2007 12:00 12,3 C 63 % 1014,5 hPa 0,0 l/m 2,6 km/h (1 Bft) NO 0,00 h 0,076 mm 107 W/m 5,4 C 12,3 C 4,5 km/h (1 Bft)
21/02/2007 13:00 12,6 C 63 % 1014,0 hPa 0,0 l/m 2,3 km/h (1 Bft) NO 0,00 h 0,076 mm 120 W/m 5,6 C 12,6 C 3,4 km/h (1 Bft)
21/02/2007 14:00 12,7 C 65 % 1013,5 hPa 0,0 l/m 0,1 km/h (0 Bft) NO 0,00 h 0,076 mm 80 W/m 6,2 C 12,7 C 0,8 km/h (0 Bft)
21/02/2007 15:00 12,6 C 63 % 1013,4 hPa 0,0 l/m 1,4 km/h (1 Bft) E 0,00 h 0,051 mm 74 W/m 5,8 C 12,6 C 2,7 km/h (1 Bft)
21/02/2007 16:00 11,9 C 74 % 1013,4 hPa 0,0 l/m 1,0 km/h (0 Bft) E-SE 0,00 h 0,051 mm 44 W/m 7,5 C 11,9 C 2,6 km/h (1 Bft)
21/02/2007 17:00 11,3 C 75 % 1013,4 hPa 0,0 l/m 1,7 km/h (1 Bft) SE 0,00 h 0,025 mm 9 W/m 7,2 C 11,3 C 2,8 km/h (1 Bft)
21/02/2007 18:00 10,7 C 80 % 1013,8 hPa 0,0 l/m 3,2 km/h (1 Bft) O-NO 0,00 h 0,025 mm 0 W/m 7,4 C 10,7 C 4,9 km/h (1 Bft)
21/02/2007 19:00 10,3 C 84 % 1014,0 hPa 0,0 l/m 4,4 km/h (1 Bft) S 0,00 h 0,000 mm 0 W/m 7,7 C 10,3 C 5,8 km/h (2 Bft)
21/02/2007 20:00 10,2 C 87 % 1013,9 hPa 0,0 l/m 3,7 km/h (1 Bft) O 0,00 h 0,025 mm 0 W/m 8,1 C 10,1 C 5,4 km/h (1 Bft)
21/02/2007 21:00 10,1 C 88 % 1013,9 hPa 0,0 l/m 3,4 km/h (1 Bft) O 0,00 h 0,025 mm 0 W/m 8,1 C 10,1 C 5,0 km/h (1 Bft)
21/02/2007 22:00 9,8 C 86 % 1014,1 hPa 0,0 l/m 0,3 km/h (0 Bft) O 0,00 h 0,025 mm 0 W/m 7,7 C 9,8 C 1,0 km/h (0 Bft)
21/02/2007 23:00 10,2 C 82 % 1014,0 hPa 0,0 l/m 3,8 km/h (1 Bft) N-NO 0,00 h 0,025 mm 0 W/m 7,3 C 10,2 C 6,3 km/h (2 Bft)
22/02/2007 00:00 10,5 C 77 % 1013,7 hPa 0,0 l/m 0,9 km/h (0 Bft) N-NO 0,00 h 0,025 mm 0 W/m 6,7 C 10,5 C 2,0 km/h (1 Bft)
22/02/2007 01:00 10,3 C 78 % 1013,4 hPa 0,0 l/m 0,1 km/h (0 Bft) N-NO 0,00 h 0,025 mm 0 W/m 6,6 C 10,3 C 0,5 km/h (0 Bft)
22/02/2007 02:00 10,0 C 78 % 1013,4 hPa 0,0 l/m 0,0 km/h (0 Bft) N 0,00 h 0,025 mm 0 W/m 6,5 C 10,0 C 0,1 km/h (0 Bft)
22/02/2007 03:00 10,0 C 80 % 1013,0 hPa 0,0 l/m 0,6 km/h (0 Bft) N-NO 0,00 h 0,025 mm 0 W/m 6,7 C 10,0 C 1,7 km/h (1 Bft)
22/02/2007 04:00 9,9 C 80 % 1012,6 hPa 0,0 l/m 0,8 km/h (0 Bft) N-NO 0,00 h 0,025 mm 0 W/m 6,6 C 9,9 C 2,3 km/h (1 Bft)
22/02/2007 05:00 9,5 C 81 % 1012,5 hPa 0,0 l/m 2,8 km/h (1 Bft) NO 0,00 h 0,025 mm 0 W/m 6,3 C 9,4 C 4,2 km/h (1 Bft)
22/02/2007 06:00 8,9 C 83 % 1012,9 hPa 0,0 l/m 4,4 km/h (1 Bft) O-NO 0,00 h 0,025 mm 0 W/m 6,1 C 8,6 C 6,0 km/h (2 Bft)
22/02/2007 07:00 8,6 C 83 % 1013,1 hPa 0,0 l/m 2,7 km/h (1 Bft) NO 0,05 h 0,025 mm 18 W/m 5,9 C 8,6 C 4,7 km/h (1 Bft)
22/02/2007 08:00 9,6 C 83 % 1013,6 hPa 0,0 l/m 1,1 km/h (0 Bft) NO 0,22 h 0,025 mm 102 W/m 6,8 C 9,6 C 2,6 km/h (1 Bft)
22/02/2007 09:00 12,4 C 72 % 1013,6 hPa 0,0 l/m 1,1 km/h (1 Bft) E 0,97 h 0,051 mm 301 W/m 7,5 C 12,4 C 2,8 km/h (1 Bft)
22/02/2007 10:00 13,7 C 67 % 1013,4 hPa 0,0 l/m 3,2 km/h (1 Bft) E-SE 1,00 h 0,152 mm 447 W/m 7,8 C 13,7 C 6,5 km/h (2 Bft)
22/02/2007 11:00 13,0 C 74 % 1013,7 hPa 0,0 l/m 3,8 km/h (1 Bft) E 0,07 h 0,229 mm 202 W/m 8,5 C 13,0 C 7,3 km/h (2 Bft)
22/02/2007 12:00 13,0 C 76 % 1013,6 hPa 0,0 l/m 2,9 km/h (1 Bft) E 0,00 h 0,127 mm 246 W/m 8,9 C 13,0 C 5,2 km/h (1 Bft)
22/02/2007 13:00 13,6 C 72 % 1013,1 hPa 0,0 l/m 3,0 km/h (1 Bft) E-SE 0,28 h 0,127 mm 301 W/m 8,7 C 13,6 C 5,5 km/h (1 Bft)
22/02/2007 14:00 13,7 C 75 % 1012,8 hPa 0,0 l/m 3,5 km/h (1 Bft) E 0,23 h 0,152 mm 243 W/m 9,4 C 13,7 C 6,6 km/h (2 Bft)
22/02/2007 15:00 12,9 C 77 % 1012,7 hPa 0,0 l/m 4,6 km/h (1 Bft) S 0,00 h 0,127 mm 135 W/m 9,0 C 12,9 C 6,9 km/h (2 Bft)
22/02/2007 16:00 12,8 C 80 % 1012,4 hPa 0,0 l/m 1,9 km/h (1 Bft) S-SE 0,08 h 0,076 mm 127 W/m 9,4 C 12,8 C 3,8 km/h (1 Bft)
22/02/2007 17:00 12,2 C 84 % 1012,4 hPa 0,0 l/m 2,9 km/h (1 Bft) S-SE 0,00 h 0,076 mm 36 W/m 9,6 C 12,2 C 4,6 km/h (1 Bft)
22/02/2007 18:00 11,1 C 88 % 1012,6 hPa 0,0 l/m 1,3 km/h (1 Bft) S-SE 0,00 h 0,025 mm 6 W/m 9,2 C 11,1 C 1,9 km/h (1 Bft)
22/02/2007 19:00 10,4 C 91 % 1013,0 hPa 0,0 l/m 2,2 km/h (1 Bft) S-SE 0,00 h 0,000 mm 0 W/m 9,0 C 10,4 C 3,4 km/h (1 Bft)
22/02/2007 20:00 10,2 C 91 % 1013,1 hPa 0,0 l/m 0,0 km/h (0 Bft) O 0,00 h 0,025 mm 0 W/m 8,8 C 10,2 C 0,1 km/h (0 Bft)
22/02/2007 21:00 10,0 C 92 % 1013,1 hPa 0,0 l/m 0,1 km/h (0 Bft) O 0,00 h 0,000 mm 0 W/m 8,7 C 10,0 C 0,3 km/h (0 Bft)
22/02/2007 22:00 9,9 C 93 % 1013,2 hPa 0,0 l/m 1,7 km/h (1 Bft) O 0,00 h 0,000 mm 0 W/m 8,8 C 9,8 C 2,4 km/h (1 Bft)
22/02/2007 23:00 9,4 C 93 % 1013,1 hPa 0,0 l/m 2,0 km/h (1 Bft) NO 0,00 h 0,000 mm 0 W/m 8,4 C 9,4 C 3,3 km/h (1 Bft)
23/02/2007 00:00 8,9 C 94 % 1012,9 hPa 0,0 l/m 3,0 km/h (1 Bft) NO 0,00 h 0,000 mm 0 W/m 8,0 C 8,8 C 4,5 km/h (1 Bft)
23/02/2007 01:00 8,4 C 94 % 1012,9 hPa 0,0 l/m 1,8 km/h (1 Bft) NO 0,00 h 0,000 mm 0 W/m 7,4 C 8,3 C 3,0 km/h (1 Bft)
23/02/2007 02:00 7,9 C 94 % 1012,8 hPa 0,0 l/m 3,4 km/h (1 Bft) NO 0,00 h 0,000 mm 0 W/m 7,0 C 7,8 C 4,5 km/h (1 Bft)
23/02/2007 03:00 7,8 C 94 % 1012,5 hPa 0,0 l/m 3,9 km/h (1 Bft) O-NO 0,00 h 0,000 mm 0 W/m 6,9 C 7,5 C 5,5 km/h (1 Bft)
23/02/2007 04:00 7,6 C 93 % 1012,2 hPa 0,0 l/m 4,6 km/h (1 Bft) NO 0,00 h 0,000 mm 0 W/m 6,5 C 7,2 C 6,8 km/h (2 Bft)
23/02/2007 05:00 7,5 C 91 % 1012,0 hPa 0,0 l/m 4,7 km/h (1 Bft) NO 0,00 h 0,000 mm 0 W/m 6,1 C 7,0 C 6,9 km/h (2 Bft)
23/02/2007 06:00 7,7 C 89 % 1012,1 hPa 0,0 l/m 3,3 km/h (1 Bft) O-NO 0,00 h 0,025 mm 0 W/m 6,1 C 7,5 C 5,3 km/h (1 Bft)
23/02/2007 07:00 8,0 C 87 % 1012,2 hPa 0,0 l/m 3,3 km/h (1 Bft) O-NO 0,00 h 0,000 mm 22 W/m 6,0 C 7,7 C 5,1 km/h (1 Bft)
23/02/2007 08:00 9,2 C 81 % 1012,4 hPa 0,0 l/m 2,0 km/h (1 Bft) NO 0,85 h 0,025 mm 133 W/m 6,2 C 9,1 C 3,5 km/h (1 Bft)
23/02/2007 09:00 11,5 C 76 % 1012,3 hPa 0,0 l/m 1,6 km/h (1 Bft) N-NE 0,85 h 0,076 mm 248 W/m 7,4 C 11,5 C 3,5 km/h (1 Bft)
23/02/2007 10:00 12,8 C 71 % 1012,4 hPa 0,0 l/m 2,2 km/h (1 Bft) E 1,00 h 0,127 mm 440 W/m 7,8 C 12,8 C 4,6 km/h (1 Bft)
23/02/2007 11:00 13,9 C 71 % 1012,4 hPa 0,0 l/m 2,9 km/h (1 Bft) S 0,68 h 0,229 mm 441 W/m 8,7 C 13,9 C 5,8 km/h (2 Bft)
23/02/2007 12:00 13,8 C 70 % 1012,4 hPa 0,0 l/m 8,8 km/h (2 Bft) S 0,73 h 0,229 mm 470 W/m 8,5 C 13,8 C 13,3 km/h (3 Bft)
23/02/2007 13:00 14,1 C 73 % 1011,9 hPa 0,0 l/m 5,5 km/h (1 Bft) S 0,97 h 0,279 mm 483 W/m 9,3 C 14,1 C 9,7 km/h (2 Bft)
23/02/2007 14:00 14,0 C 75 % 1011,2 hPa 0,0 l/m 8,2 km/h (2 Bft) E 0,53 h 0,279 mm 284 W/m 9,6 C 14,0 C 12,1 km/h (2 Bft)
23/02/2007 15:00 11,9 C 84 % 1011,4 hPa 1,4 l/m 4,1 km/h (1 Bft) E 0,00 h 0,178 mm 44 W/m 9,2 C 11,9 C 6,1 km/h (2 Bft)
23/02/2007 16:00 10,7 C 93 % 1011,5 hPa 0,0 l/m 0,7 km/h (0 Bft) N 0,00 h 0,025 mm 36 W/m 9,7 C 10,7 C 2,6 km/h (1 Bft)
23/02/2007 17:00 10,3 C 94 % 1011,6 hPa 0,0 l/m 0,2 km/h (0 Bft) N 0,00 h 0,025 mm 21 W/m 9,4 C 10,3 C 0,5 km/h (0 Bft)
23/02/2007 18:00 10,2 C 94 % 1011,9 hPa 0,0 l/m 0,5 km/h (0 Bft) N-NO 0,00 h 0,000 mm 6 W/m 9,2 C 10,2 C 1,4 km/h (1 Bft)
23/02/2007 19:00 10,0 C 94 % 1012,0 hPa 0,0 l/m 0,9 km/h (0 Bft) N-NO 0,00 h 0,000 mm 0 W/m 9,1 C 10,0 C 1,7 km/h (1 Bft)
23/02/2007 20:00 9,9 C 94 % 1012,0 hPa 0,0 l/m 2,6 km/h (1 Bft) NO 0,00 h 0,000 mm 0 W/m 9,0 C 9,9 C 4,6 km/h (1 Bft)
23/02/2007 21:00 9,4 C 94 % 1012,1 hPa 0,0 l/m 4,3 km/h (1 Bft) O-NO 0,00 h 0,000 mm 0 W/m 8,5 C 9,2 C 5,9 km/h (2 Bft)
23/02/2007 22:00 8,7 C 94 % 1012,6 hPa 0,0 l/m 7,6 km/h (2 Bft) O-NO 0,00 h 0,000 mm 0 W/m 7,8 C 7,6 C 9,8 km/h (2 Bft)
23/02/2007 23:00 8,1 C 94 % 1012,5 hPa 0,0 l/m 4,2 km/h (1 Bft) O-NO 0,00 h 0,025 mm 0 W/m 7,2 C 7,6 C 6,2 km/h (2 Bft)
24/02/2007 00:00 8,1 C 93 % 1012,4 hPa 0,0 l/m 4,0 km/h (1 Bft) O-NO 0,00 h 0,000 mm 0 W/m 7,1 C 7,7 C 5,3 km/h (1 Bft)
24/02/2007 01:00 7,8 C 93 % 1012,0 hPa 0,2 l/m 3,0 km/h (1 Bft) O-NO 0,00 h 0,000 mm 0 W/m 6,8 C 7,6 C 4,1 km/h (1 Bft)
24/02/2007 02:00 7,5 C 92 % 1011,8 hPa 0,0 l/m 1,1 km/h (1 Bft) O-NO 0,00 h 0,000 mm 0 W/m 6,3 C 7,5 C 1,9 km/h (1 Bft)
24/02/2007 03:00 7,5 C 91 % 1011,5 hPa 0,0 l/m 3,2 km/h (1 Bft) O-NO 0,00 h 0,000 mm 0 W/m 6,2 C 7,2 C 4,4 km/h (1 Bft)
24/02/2007 04:00 7,3 C 90 % 1011,3 hPa 0,0 l/m 3,5 km/h (1 Bft) O-NO 0,00 h 0,000 mm 0 W/m 5,8 C 7,0 C 4,8 km/h (1 Bft)
24/02/2007 05:00 7,2 C 90 % 1011,4 hPa 0,0 l/m 7,5 km/h (2 Bft) O-NO 0,00 h 0,025 mm 0 W/m 5,7 C 5,9 C 9,8 km/h (2 Bft)
24/02/2007 06:00 6,7 C 89 % 1011,5 hPa 0,0 l/m 6,3 km/h (2 Bft) O-NO 0,00 h 0,025 mm 0 W/m 5,0 C 5,7 C 8,1 km/h (2 Bft)
24/02/2007 07:00 6,5 C 86 % 1011,7 hPa 0,0 l/m 5,1 km/h (1 Bft) O-NO 0,45 h 0,000 mm 43 W/m 4,3 C 5,6 C 6,8 km/h (2 Bft)
24/02/2007 08:00 8,2 C 82 % 1012,1 hPa 0,0 l/m 2,0 km/h (1 Bft) O 0,28 h 0,025 mm 90 W/m 5,2 C 8,0 C 3,2 km/h (1 Bft)
24/02/2007 09:00 9,4 C 81 % 1012,3 hPa 0,0 l/m 0,3 km/h (0 Bft) O-NO 0,10 h 0,051 mm 142 W/m 6,3 C 9,4 C 1,1 km/h (0 Bft)
24/02/2007 10:00 10,4 C 85 % 1012,1 hPa 0,0 l/m 0,3 km/h (0 Bft) O-NO 0,07 h 0,076 mm 169 W/m 8,0 C 10,4 C 0,9 km/h (0 Bft)
24/02/2007 11:00 12,1 C 83 % 1011,8 hPa 0,0 l/m 3,7 km/h (1 Bft) E-SE 0,83 h 0,076 mm 535 W/m 9,3 C 12,1 C 6,0 km/h (2 Bft)
24/02/2007 12:00 13,6 C 75 % 1011,2 hPa 0,0 l/m 4,4 km/h (1 Bft) E 0,63 h 0,254 mm 500 W/m 9,4 C 13,6 C 7,5 km/h (2 Bft)
24/02/2007 13:00 15,3 C 64 % 1009,9 hPa 0,0 l/m 17,2 km/h (3 Bft) O-SO 1,00 h 0,254 mm 612 W/m 8,5 C 15,3 C 23,7 km/h (4 Bft)
24/02/2007 14:00 16,2 C 53 % 1008,5 hPa 0,0 l/m 31,3 km/h (5 Bft) SO 0,95 h 0,406 mm 482 W/m 6,7 C 16,2 C 40,1 km/h (6 Bft)
24/02/2007 15:00 16,3 C 49 % 1008,2 hPa 0,0 l/m 28,6 km/h (4 Bft) O-SO 1,00 h 0,432 mm 376 W/m 5,7 C 16,3 C 37,7 km/h (5 Bft)
24/02/2007 16:00 15,9 C 48 % 1008,1 hPa 0,0 l/m 27,6 km/h (4 Bft) O-SO 0,88 h 0,381 mm 214 W/m 4,8 C 15,9 C 36,1 km/h (5 Bft)
24/02/2007 17:00 14,9 C 47 % 1008,2 hPa 0,0 l/m 26,8 km/h (4 Bft) O-SO 0,43 h 0,305 mm 57 W/m 3,7 C 14,9 C 35,5 km/h (5 Bft)
24/02/2007 18:00 13,6 C 53 % 1008,9 hPa 0,0 l/m 28,9 km/h (5 Bft) O-SO 0,00 h 0,203 mm 7 W/m 4,2 C 13,6 C 37,4 km/h (5 Bft)
24/02/2007 19:00 12,8 C 63 % 1009,2 hPa 0,0 l/m 28,7 km/h (4 Bft) O-SO 0,00 h 0,178 mm 0 W/m 5,9 C 12,8 C 38,8 km/h (5 Bft)
24/02/2007 20:00 12,2 C 63 % 1009,6 hPa 0,0 l/m 21,3 km/h (4 Bft) O-SO 0,00 h 0,127 mm 0 W/m 5,4 C 12,2 C 31,2 km/h (5 Bft)
24/02/2007 21:00 12,0 C 63 % 1009,8 hPa 0,0 l/m 26,9 km/h (4 Bft) O-SO 0,00 h 0,102 mm 0 W/m 5,1 C 12,0 C 37,5 km/h (5 Bft)
24/02/2007 22:00 11,9 C 61 % 1010,0 hPa 0,0 l/m 26,8 km/h (4 Bft) O-SO 0,00 h 0,127 mm 0 W/m 4,5 C 11,9 C 37,9 km/h (5 Bft)
24/02/2007 23:00 12,0 C 58 % 1010,0 hPa 0,0 l/m 23,9 km/h (4 Bft) O-SO 0,00 h 0,127 mm 0 W/m 4,1 C 12,0 C 33,5 km/h (5 Bft)
25/02/2007 00:00 11,6 C 61 % 1010,0 hPa 0,0 l/m 23,2 km/h (4 Bft) O-SO 0,00 h 0,127 mm 0 W/m 4,3 C 11,6 C 30,7 km/h (5 Bft)
25/02/2007 01:00 11,5 C 61 % 1009,9 hPa 0,0 l/m 21,4 km/h (4 Bft) O-SO 0,00 h 0,102 mm 0 W/m 4,3 C 11,5 C 28,3 km/h (4 Bft)
25/02/2007 02:00 10,5 C 69 % 1009,6 hPa 0,0 l/m 22,5 km/h (4 Bft) O-SO 0,00 h 0,102 mm 0 W/m 5,1 C 10,5 C 28,0 km/h (4 Bft)
25/02/2007 03:00 10,1 C 72 % 1009,2 hPa 0,0 l/m 25,3 km/h (4 Bft) SO 0,00 h 0,076 mm 0 W/m 5,3 C 8,6 C 30,5 km/h (5 Bft)
25/02/2007 04:00 10,2 C 71 % 1008,8 hPa 0,0 l/m 20,9 km/h (4 Bft) SO 0,00 h 0,076 mm 0 W/m 5,1 C 10,2 C 27,3 km/h (4 Bft)
25/02/2007 05:00 10,3 C 70 % 1009,0 hPa 0,0 l/m 8,3 km/h (2 Bft) SO 0,00 h 0,076 mm 0 W/m 5,1 C 10,3 C 11,8 km/h (2 Bft)
25/02/2007 06:00 9,9 C 72 % 1008,8 hPa 0,0 l/m 2,9 km/h (1 Bft) S 0,00 h 0,051 mm 0 W/m 5,2 C 9,9 C 4,8 km/h (1 Bft)
25/02/2007 07:00 9,5 C 74 % 1008,7 hPa 0,0 l/m 3,8 km/h (1 Bft) N-NO 0,00 h 0,025 mm 20 W/m 5,0 C 9,2 C 6,1 km/h (2 Bft)
25/02/2007 08:00 10,1 C 73 % 1008,9 hPa 0,0 l/m 1,3 km/h (1 Bft) NO 0,00 h 0,025 mm 80 W/m 5,4 C 10,1 C 2,8 km/h (1 Bft)
25/02/2007 09:00 10,9 C 76 % 1008,6 hPa 0,0 l/m 3,9 km/h (1 Bft) SO 0,00 h 0,051 mm 139 W/m 6,7 C 10,9 C 6,0 km/h (2 Bft)
25/02/2007 10:00 13,0 C 72 % 1008,1 hPa 0,0 l/m 23,1 km/h (4 Bft) O-SO 0,10 h 0,076 mm 224 W/m 8,2 C 13,0 C 31,2 km/h (5 Bft)
25/02/2007 11:00 14,0 C 66 % 1008,3 hPa 0,0 l/m 23,8 km/h (4 Bft) O-SO 0,00 h 0,203 mm 179 W/m 7,7 C 14,0 C 31,4 km/h (5 Bft)
25/02/2007 12:00 13,6 C 70 % 1007,8 hPa 0,0 l/m 24,1 km/h (4 Bft) O-SO 0,00 h 0,203 mm 178 W/m 8,2 C 13,6 C 31,5 km/h (5 Bft)
25/02/2007 13:00 13,4 C 59 % 1006,9 hPa 0,0 l/m 16,9 km/h (3 Bft) O-SO 0,00 h 0,178 mm 122 W/m 5,5 C 13,4 C 23,1 km/h (4 Bft)
25/02/2007 14:00 12,6 C 60 % 1005,5 hPa 0,0 l/m 23,5 km/h (4 Bft) SO 0,00 h 0,152 mm 70 W/m 5,1 C 12,6 C 29,9 km/h (5 Bft)
25/02/2007 15:00 12,1 C 64 % 1004,7 hPa 0,0 l/m 25,9 km/h (4 Bft) O-SO 0,00 h 0,152 mm 83 W/m 5,6 C 12,1 C 32,4 km/h (5 Bft)
25/02/2007 16:00 12,0 C 64 % 1004,2 hPa 0,0 l/m 30,9 km/h (5 Bft) O-SO 0,00 h 0,152 mm 53 W/m 5,4 C 12,0 C 39,4 km/h (6 Bft)
25/02/2007 17:00 11,5 C 65 % 1003,7 hPa 0,0 l/m 33,9 km/h (5 Bft) O-SO 0,10 h 0,152 mm 30 W/m 5,2 C 11,5 C 43,8 km/h (6 Bft)
25/02/2007 18:00 11,4 C 62 % 1003,8 hPa 0,0 l/m 31,4 km/h (5 Bft) O-SO 0,10 h 0,152 mm 13 W/m 4,4 C 11,4 C 39,8 km/h (6 Bft)
25/02/2007 19:00 11,3 C 59 % 1004,1 hPa 0,0 l/m 32,0 km/h (5 Bft) O-SO 0,00 h 0,152 mm 0 W/m 3,6 C 11,3 C 41,0 km/h (6 Bft)
25/02/2007 20:00 11,5 C 55 % 1004,5 hPa 0,0 l/m 30,6 km/h (5 Bft) O-SO 0,00 h 0,152 mm 0 W/m 2,8 C 11,5 C 40,7 km/h (6 Bft)
25/02/2007 21:00 11,3 C 55 % 1004,9 hPa 0,0 l/m 24,2 km/h (4 Bft) O-SO 0,00 h 0,152 mm 0 W/m 2,6 C 11,3 C 32,3 km/h (5 Bft)
25/02/2007 22:00 10,6 C 56 % 1005,2 hPa 0,0 l/m 20,9 km/h (4 Bft) SO 0,00 h 0,127 mm 0 W/m 2,3 C 10,0 C 26,2 km/h (4 Bft)
25/02/2007 23:00 10,0 C 58 % 1005,1 hPa 0,0 l/m 24,6 km/h (4 Bft) O-SO 0,00 h 0,102 mm 0 W/m 2,2 C 8,3 C 30,6 km/h (5 Bft)
Min-Date _ 20/02/07 24/02/07 25/02/07 - 19/02/07 - - - - 21/02/07 20/02/07 19/02/07
_ Min-Heure 06:34 16:58 17:45 - 09:11 - - - - 02:40 06:08 09:20
Minimum _ 4,9 C 45 % 1003,4 hPa - 0,0 km/h (0 Bft) - - - - 0,6 C 2,7 C 0,0 km/h (0 Bft)
Max-Date _ 24/02/07 22/02/07 19/02/07 23/02/07 24/02/07 - 19/02/07 24/02/07 24/02/07 23/02/07 24/02/07 25/02/07
_ Max-Heure 15:50 23:06 00:00 15:18 14:24 - 10:34 15:00 12:10 13:43 15:50 17:43
Maximum _ 16,7 C 96 % 1015,4 hPa 1,4 l/m 41,8 km/h
SO (6 Bft)
- 0,02 h 0,432 mm 793 W/m 10,5 C 16,7 C 53,1 km/h
O-SO (7 Bft)
Moyenne _ 10,3 C 74 % 1011,3 hPa #1,6 l/m 7,4 km/h (2 Bft) O-NO #30:58 h #14,199 mm 199 W/m 5,7 C 10,1 C 10,3 km/h (2 Bft)
Roquefort les pins